Time;durP1;ratioP1;P1;durP2;ratioP2;P2;SDS_P1;SDS_P2;PMS_P1;PMS_P2;Temp;Humidity;BMP_temperature;BMP_pressure;BME280_temperature;BME280_humidity;BME280_pressure;Samples;Min_cycle;Max_cycle;Signal;HPM_P1;HPM_P2
2022/05/24 00:00:33;;;;;;;7.47;5.20;;;;;;;17.29;67.43;98297.75;4979767;28;20113;-87
2022/05/24 00:03:00;;;;;;;6.60;5.03;;;;;;;17.28;67.69;98293.41;4980830;28;20057;-84
2022/05/24 00:05:30;;;;;;;7.35;4.45;;;;;;;17.25;67.58;98284.94;4980266;28;20055;-84
2022/05/24 00:07:57;;;;;;;5.57;4.40;;;;;;;17.26;67.63;98298.06;4978984;28;20121;-83
2022/05/24 00:10:28;;;;;;;8.35;4.72;;;;;;;17.24;67.56;98309.88;4980494;28;20050;-82
2022/05/24 00:12:55;;;;;;;9.18;4.68;;;;;;;17.23;67.48;98306.38;4980529;28;20047;-84
2022/05/24 00:15:23;;;;;;;6.53;4.28;;;;;;;17.22;67.85;98302.06;4977229;28;20402;-85
2022/05/24 00:17:53;;;;;;;7.72;4.85;;;;;;;17.22;67.85;98315.34;4975181;28;20105;-85
2022/05/24 00:20:20;;;;;;;7.53;4.55;;;;;;;17.24;67.82;98304.53;4975267;28;20054;-83
2022/05/24 00:22:46;;;;;;;7.03;4.95;;;;;;;17.25;67.64;98314.19;4975459;28;20080;-83
2022/05/24 00:25:13;;;;;;;5.57;5.07;;;;;;;17.23;67.87;98301.03;4974193;28;20047;-85
2022/05/24 00:27:40;;;;;;;9.98;6.10;;;;;;;17.24;67.50;98316.03;4975033;28;20464;-81
2022/05/24 00:30:07;;;;;;;6.85;4.75;;;;;;;17.22;67.71;98318.00;4973217;28;20117;-82
2022/05/24 00:32:35;;;;;;;5.28;4.68;;;;;;;17.22;67.69;98306.53;4972548;28;20057;-82
2022/05/24 00:35:01;;;;;;;7.72;4.90;;;;;;;17.20;67.59;98314.69;4972646;28;20517;-83
2022/05/24 00:37:28;;;;;;;5.80;4.97;;;;;;;17.20;67.62;98309.38;4973864;28;20082;-82
2022/05/24 00:39:55;;;;;;;6.57;5.22;;;;;;;17.18;67.50;98306.88;4973952;28;20050;-84
2022/05/24 00:42:27;;;;;;;10.43;5.43;;;;;;;17.16;67.52;98308.03;4973246;28;20054;-82
2022/05/24 00:44:58;;;;;;;5.70;5.05;;;;;;;17.15;67.42;98303.69;4972611;28;20050;-82
2022/05/24 00:47:37;;;;;;;7.20;5.47;;;;;;;17.12;67.22;98314.69;4956328;28;20105;-82
2022/05/24 00:50:13;;;;;;;7.60;5.10;;;;;;;17.12;67.26;98314.69;4973552;28;20050;-82
2022/05/24 00:52:47;;;;;;;6.50;5.45;;;;;;;17.08;67.47;98306.19;4973292;28;20050;-83
2022/05/24 00:55:16;;;;;;;7.53;5.80;;;;;;;17.11;67.40;98307.69;4973648;28;20571;-82
2022/05/24 00:57:58;;;;;;;6.93;5.78;;;;;;;17.04;67.39;98316.34;4973407;28;20058;-82
2022/05/24 01:00:24;;;;;;;7.45;5.75;;;;;;;17.08;67.62;98303.53;4973110;28;20555;-81
2022/05/24 01:02:51;;;;;;;6.00;5.38;;;;;;;17.08;67.74;98308.84;4971780;28;20054;-83
2022/05/24 01:05:23;;;;;;;8.10;5.25;;;;;;;17.06;67.33;98317.03;4973303;28;20074;-81
2022/05/24 01:07:50;;;;;;;6.60;5.28;;;;;;;17.11;67.39;98326.31;4972125;28;20072;-84
2022/05/24 01:10:32;;;;;;;8.25;5.15;;;;;;;17.12;67.22;98330.66;4955740;28;20563;-83
2022/05/24 01:13:04;;;;;;;6.68;5.05;;;;;;;17.12;66.84;98325.31;4972775;28;20062;-81
2022/05/24 01:15:31;;;;;;;5.95;5.35;;;;;;;17.13;67.01;98321.66;4972691;28;20050;-81
2022/05/24 01:17:59;;;;;;;9.07;6.22;;;;;;;17.13;67.13;98324.31;4972960;28;20047;-83
2022/05/24 01:20:26;;;;;;;7.00;5.68;;;;;;;17.12;66.90;98314.69;4972753;28;20109;-83
2022/05/24 01:23:11;;;;;;;8.85;5.90;;;;;;;17.08;66.81;98321.34;4971490;28;20101;-82
2022/05/24 01:25:47;;;;;;;9.45;7.38;;;;;;;17.09;66.97;98320.34;4972962;28;20121;-84
2022/05/24 01:28:23;;;;;;;11.10;7.88;;;;;;;17.12;67.01;98325.31;4972501;28;20054;-83
2022/05/24 01:30:50;;;;;;;11.55;8.65;;;;;;;17.15;67.16;98312.53;4972745;28;20452;-82
2022/05/24 01:36:13;;;;;;;12.38;10.77;;;;;;;17.17;67.22;98309.69;4972675;28;20058;-83
2022/05/24 01:38:45;;;;;;;12.55;10.27;;;;;;;17.16;67.02;98297.41;4972151;28;20054;-84
2022/05/24 01:41:17;;;;;;;13.65;11.25;;;;;;;17.15;66.90;98298.38;4972467;28;20055;-83
2022/05/24 01:43:47;;;;;;;14.85;11.48;;;;;;;17.17;67.27;98288.44;4972168;28;20050;-83
2022/05/24 01:46:18;;;;;;;13.77;11.35;;;;;;;17.16;66.97;98297.41;4972373;28;20191;-82
2022/05/24 01:48:50;;;;;;;14.43;11.45;;;;;;;17.15;67.01;98295.72;4972194;28;20130;-85
2022/05/24 01:51:21;;;;;;;12.52;11.13;;;;;;;17.16;67.25;98308.03;4972420;28;20050;-84
2022/05/24 01:53:53;;;;;;;13.57;12.18;;;;;;;17.16;67.21;98308.84;4972436;28;20054;-83
2022/05/24 01:56:40;;;;;;;14.02;11.85;;;;;;;17.16;67.05;98302.72;4971912;28;20109;-84
2022/05/24 01:59:08;;;;;;;14.13;11.73;;;;;;;17.18;67.29;98300.72;4972216;28;20051;-84
2022/05/24 02:01:53;;;;;;;16.45;12.73;;;;;;;17.14;66.96;98307.38;4954916;28;20046;-84
2022/05/24 02:04:23;;;;;;;15.68;12.90;;;;;;;17.16;67.30;98305.38;4954816;28;20551;-85
2022/05/24 02:07:07;;;;;;;17.90;14.02;;;;;;;17.12;67.04;98306.72;4971939;28;20105;-85
2022/05/24 02:09:37;;;;;;;15.13;12.32;;;;;;;17.14;67.38;98316.19;4972310;28;20051;-84
2022/05/24 02:12:08;;;;;;;17.20;14.10;;;;;;;17.13;67.63;98306.56;4972205;28;20125;-84
2022/05/24 02:14:39;;;;;;;14.90;13.32;;;;;;;17.12;67.47;98312.84;4971856;28;20098;-85
2022/05/24 02:17:12;;;;;;;15.73;13.30;;;;;;;17.12;67.67;98309.38;4972472;28;20055;-85
2022/05/24 02:19:44;;;;;;;16.20;12.97;;;;;;;17.11;67.70;98327.16;4971888;28;20109;-84
2022/05/24 02:22:17;;;;;;;16.13;14.18;;;;;;;17.10;68.12;98324.66;4971923;28;20290;-86
2022/05/24 02:24:44;;;;;;;15.60;13.90;;;;;;;17.12;68.01;98328.00;4974465;28;20109;-83
2022/05/24 02:27:11;;;;;;;16.08;14.35;;;;;;;17.11;68.07;98324.47;4973991;28;20078;-83
2022/05/24 02:29:37;;;;;;;16.88;14.50;;;;;;;17.10;68.15;98330.81;4974510;28;20125;-84
2022/05/24 02:32:05;;;;;;;18.45;14.05;;;;;;;17.08;68.32;98324.81;4973364;28;20055;-84
2022/05/24 02:34:32;;;;;;;15.38;13.80;;;;;;;17.08;68.26;98311.50;4973280;28;20089;-85
2022/05/24 02:36:59;;;;;;;17.30;15.27;;;;;;;17.10;68.33;98316.66;4972929;28;20488;-83
2022/05/24 02:39:25;;;;;;;19.00;15.45;;;;;;;17.08;68.36;98311.50;4973249;28;20493;-84
2022/05/24 02:41:52;;;;;;;19.17;15.73;;;;;;;17.08;68.44;98316.00;4973256;28;20058;-83
2022/05/24 02:44:18;;;;;;;19.08;14.73;;;;;;;17.06;68.61;98306.38;4973449;28;20046;-81
2022/05/24 02:46:47;;;;;;;16.63;14.90;;;;;;;17.06;68.61;98319.69;4973946;28;20054;-82
2022/05/24 02:49:14;;;;;;;18.73;16.48;;;;;;;17.08;68.76;98321.34;4973911;28;20058;-82
2022/05/24 02:51:41;;;;;;;20.73;15.43;;;;;;;17.06;69.01;98322.34;4959272;28;20058;-81
2022/05/24 02:54:08;;;;;;;19.20;16.67;;;;;;;17.08;68.84;98321.34;4976997;28;20105;-84
2022/05/24 02:56:35;;;;;;;18.20;15.80;;;;;;;17.08;68.85;98331.97;4976975;28;20054;-83
2022/05/24 02:59:03;;;;;;;18.73;16.75;;;;;;;17.05;68.85;98328.63;4975699;28;20086;-82
2022/05/24 03:01:30;;;;;;;18.33;16.38;;;;;;;17.05;68.74;98328.63;4976965;28;20106;-83
2022/05/24 03:03:57;;;;;;;18.90;16.83;;;;;;;17.03;69.11;98317.31;4976396;28;20098;-82
2022/05/24 03:06:25;;;;;;;20.77;17.65;;;;;;;17.02;69.17;98310.34;4976852;28;20050;-84
2022/05/24 03:14:23;;;;;;;20.35;17.38;;;;;;;17.06;69.43;98313.53;4976876;28;20101;-83
2022/05/24 03:16:52;;;;;;;21.17;17.98;;;;;;;17.08;69.19;98310.69;4976581;28;20062;-83
2022/05/24 03:19:20;;;;;;;26.05;19.15;;;;;;;17.08;69.13;98316.84;4976273;28;20054;-84
2022/05/24 03:21:47;;;;;;;25.40;18.98;;;;;;;17.10;69.08;98325.50;4977134;28;20077;-83
2022/05/24 03:24:13;;;;;;;24.10;18.13;;;;;;;17.10;69.12;98328.16;4976372;28;20105;-82
2022/05/24 03:26:40;;;;;;;22.35;18.80;;;;;;;17.10;69.10;98330.81;4976350;28;20058;-85
2022/05/24 03:29:07;;;;;;;23.30;18.42;;;;;;;17.12;68.86;98333.31;4976450;28;20059;-84
2022/05/24 03:31:35;;;;;;;23.40;18.17;;;;;;;17.12;68.91;98336.78;4975993;28;20059;-83
2022/05/24 03:34:02;;;;;;;25.35;18.23;;;;;;;17.14;68.83;98336.63;4975694;28;20444;-84
2022/05/24 03:36:29;;;;;;;21.33;17.77;;;;;;;17.16;68.66;98345.28;4975824;28;20055;-85
2022/05/24 03:38:55;;;;;;;22.45;18.77;;;;;;;17.16;68.99;98348.75;4976065;28;20421;-83
2022/05/24 03:41:22;;;;;;;21.98;18.40;;;;;;;17.16;68.66;98348.75;4975748;28;20058;-82
2022/05/24 03:43:48;;;;;;;20.92;18.00;;;;;;;17.18;68.80;98351.25;4976650;28;20109;-82
2022/05/24 03:46:15;;;;;;;20.02;16.30;;;;;;;17.19;68.68;98339.59;4975881;28;20086;-83
2022/05/24 03:48:42;;;;;;;24.13;20.13;;;;;;;17.19;68.65;98350.25;4976017;28;20055;-82
2022/05/24 03:51:09;;;;;;;22.65;18.77;;;;;;;17.21;68.91;98342.94;4958336;28;20484;-82
2022/05/24 03:53:36;;;;;;;21.48;19.15;;;;;;;17.22;68.68;98343.75;4975750;28;20057;-83
2022/05/24 03:56:03;;;;;;;21.95;19.33;;;;;;;17.21;68.66;98334.97;4975526;28;20082;-83
2022/05/24 03:58:29;;;;;;;22.15;19.02;;;;;;;17.23;68.66;98335.63;4974830;28;20124;-84
2022/05/24 04:00:56;;;;;;;21.83;19.48;;;;;;;17.24;68.64;98344.44;4975919;28;20055;-83
2022/05/24 04:03:23;;;;;;;23.98;20.17;;;;;;;17.24;68.59;98337.31;4975009;28;20422;-82
2022/05/24 04:05:50;;;;;;;21.45;18.77;;;;;;;17.26;68.85;98329.13;4976535;28;20512;-82
2022/05/24 04:08:18;;;;;;;22.10;19.25;;;;;;;17.28;68.78;98335.13;4976837;28;20061;-85
2022/05/24 04:10:45;;;;;;;20.92;18.70;;;;;;;17.29;68.88;98326.16;4974302;28;20054;-84
2022/05/24 04:13:12;;;;;;;22.55;19.52;;;;;;;17.31;68.78;98326.81;4976609;28;20101;-86
2022/05/24 04:15:39;;;;;;;22.75;18.55;;;;;;;17.35;68.72;98329.97;4975991;28;20054;-84
2022/05/24 04:18:06;;;;;;;19.83;17.63;;;;;;;17.37;68.54;98322.66;4976581;28;20098;-85
2022/05/24 04:20:33;;;;;;;20.98;18.73;;;;;;;17.39;68.41;98313.53;4976448;28;20047;-86
2022/05/24 04:22:59;;;;;;;25.40;19.55;;;;;;;17.42;68.28;98325.66;4975398;28;20109;-84
2022/05/24 04:25:33;;;;;;;23.08;19.38;;;;;;;17.44;67.84;98326.31;4976416;28;20043;-85
2022/05/24 09:10:23;;;;;;;5.20;4.70;;;;;;;17.65;64.28;98645.09;5110274;27;20112;-84
2022/05/24 09:13:23;;;;;;;7.10;4.53;;;;;;;17.74;63.09;98647.78;5110465;28;20052;-84
2022/05/24 09:16:00;;;;;;;7.10;4.40;;;;;;;17.87;62.21;98668.63;5110288;28;20051;-84
2022/05/24 09:18:34;;;;;;;7.35;3.72;;;;;;;17.96;61.57;98659.66;5110093;28;20082;-85
2022/05/24 09:21:00;;;;;;;5.68;3.35;;;;;;;18.05;62.71;98661.34;5110310;28;20055;-84
2022/05/24 09:23:41;;;;;;;6.72;3.60;;;;;;;18.08;61.59;98663.72;5110540;28;20048;-85
2022/05/24 09:26:12;;;;;;;6.43;2.95;;;;;;;18.17;61.15;98664.56;5110316;28;20056;-84
2022/05/24 09:28:55;;;;;;;8.68;2.50;;;;;;;18.21;60.81;98662.41;5109658;28;20056;-86
2022/05/24 09:31:28;;;;;;;;;;;;;;;18.24;60.72;98664.72;5109707;28;20541;-85
2022/05/24 09:34:08;;;;;;;5.93;2.17;;;;;;;18.30;59.64;98679.22;5108387;28;19920;-85
2022/05/24 09:36:41;;;;;;;4.93;2.42;;;;;;;18.33;59.46;98677.09;5108199;28;20055;-86
2022/05/24 09:39:40;;;;;;;;;;;;;;;18.33;60.46;98685.09;5109916;28;20048;-85
2022/05/24 09:42:13;;;;;;;9.77;2.47;;;;;;;18.39;59.42;98686.22;5096807;28;20369;-85
2022/05/24 09:44:48;;;;;;;6.47;2.33;;;;;;;18.40;59.77;98681.75;5107993;28;20493;-86
2022/05/24 09:47:49;;;;;;;4.03;2.37;;;;;;;18.34;59.37;98692.06;5108235;28;20059;-85
2022/05/24 09:50:18;;;;;;;6.85;2.90;;;;;;;18.34;59.69;98689.41;5107633;28;20797;-85
2022/05/24 09:53:09;;;;;;;6.68;2.30;;;;;;;18.25;58.96;98706.38;5109131;28;20097;-85
2022/05/24 09:55:43;;;;;;;4.95;2.25;;;;;;;18.24;58.69;98712.69;5109160;28;20052;-86
2022/05/24 09:58:16;;;;;;;6.20;2.70;;;;;;;18.18;58.90;98721.34;5107591;28;20106;-85
2022/05/24 10:01:01;;;;;;;3.85;2.28;;;;;;;18.13;58.81;98721.00;5108590;28;20052;-86
2022/05/24 10:03:36;;;;;;;5.30;2.30;;;;;;;18.09;58.41;98726.63;5107890;28;20048;-85
2022/05/24 10:06:10;;;;;;;9.05;2.15;;;;;;;18.08;58.65;98724.97;5109064;28;20089;-86
2022/05/24 10:08:55;;;;;;;8.13;2.20;;;;;;;18.06;58.62;98726.91;5107462;28;20109;-86
2022/05/24 10:11:32;;;;;;;8.20;2.13;;;;;;;18.03;58.70;98729.06;5108779;28;20052;-85
2022/05/24 10:14:29;;;;;;;6.85;2.40;;;;;;;18.01;57.70;98739.88;5107644;28;20044;-85
2022/05/24 10:17:20;;;;;;;3.97;2.00;;;;;;;18.05;58.16;98743.09;5108621;28;20484;-86
2022/05/24 10:20:05;;;;;;;2.13;1.38;;;;;;;18.08;56.32;98748.09;5105583;28;20048;-85
2022/05/24 10:22:43;;;;;;;3.60;1.85;;;;;;;18.16;57.14;98748.13;5095120;28;20055;-85
2022/05/24 10:25:10;;;;;;;3.10;1.50;;;;;;;18.22;57.71;98738.66;5095028;28;20073;-86
2022/05/24 10:27:59;;;;;;;2.13;1.45;;;;;;;18.23;56.83;98743.81;5094682;28;20056;-84
2022/05/24 10:30:49;;;;;;;2.60;1.58;;;;;;;18.27;56.78;98744.31;5094779;28;20048;-86
2022/05/24 10:39:36;;;;;;;4.45;1.50;;;;;;;18.73;60.50;98737.75;5094759;28;20125;-86
2022/05/24 10:42:21;;;;;;;2.92;1.60;;;;;;;18.95;57.80;98748.75;5089481;28;20106;-86
2022/05/24 10:44:55;;;;;;;2.83;1.70;;;;;;;19.20;57.36;98743.41;5090606;28;20447;-87
2022/05/24 10:47:31;;;;;;;3.92;1.80;;;;;;;19.37;56.06;98746.91;5091482;28;20105;-85
2022/05/24 10:50:06;;;;;;;2.30;1.45;;;;;;;19.54;56.19;98745.00;5084905;28;20090;-83
2022/05/24 10:52:39;;;;;;;2.65;1.48;;;;;;;19.66;56.11;98749.00;5091421;28;20056;-82
2022/05/24 10:55:30;;;;;;;4.20;1.60;;;;;;;19.77;55.26;98754.94;5092306;28;20048;-85
2022/05/24 10:58:09;;;;;;;3.28;1.55;;;;;;;19.87;54.21;98752.94;5094405;28;20051;-84
2022/05/24 11:00:43;;;;;;;4.63;1.60;;;;;;;19.90;53.15;98749.91;5094148;28;20051;-84
2022/05/24 11:03:18;;;;;;;4.65;1.58;;;;;;;19.91;53.67;98753.41;5094374;28;20145;-84
2022/05/24 11:05:54;;;;;;;4.43;1.25;;;;;;;19.91;55.01;98748.91;5094439;28;20081;-84
2022/05/24 11:08:54;;;;;;;5.57;1.52;;;;;;;19.94;53.42;98750.41;5093071;28;20044;-83
2022/05/24 11:11:39;;;;;;;3.28;1.33;;;;;;;20.21;55.53;98739.44;5093915;28;20047;-83
2022/05/24 11:14:15;;;;;;;3.88;1.48;;;;;;;20.55;55.00;98744.41;5094320;28;20529;-83
2022/05/24 11:16:46;;;;;;;3.60;1.33;;;;;;;20.94;56.70;98772.06;5094423;28;20048;-83
2022/05/24 11:19:19;;;;;;;3.45;1.38;;;;;;;21.33;55.25;98758.69;5092894;28;20046;-83
2022/05/24 11:21:57;;;;;;;4.53;1.10;;;;;;;21.77;52.27;98742.84;5093725;28;20048;-84
2022/05/24 11:24:34;;;;;;;2.65;1.15;;;;;;;22.20;48.15;98759.06;5093009;28;20074;-85
2022/05/24 11:27:02;;;;;;;2.58;1.00;;;;;;;22.61;52.04;98760.34;5092697;28;20069;-83
2022/05/24 11:29:43;;;;;;;2.35;1.40;;;;;;;22.93;49.24;98762.72;5093822;28;20097;-84
2022/05/24 11:32:11;;;;;;;3.22;1.15;;;;;;;23.28;51.23;98761.94;5092735;28;20048;-84
2022/05/24 11:34:51;;;;;;;3.17;1.40;;;;;;;23.55;49.10;98756.81;5092743;28;20112;-85
2022/05/24 11:37:28;;;;;;;1.90;1.40;;;;;;;23.80;46.00;98749.09;5092774;28;20047;-84
2022/05/24 11:39:55;;;;;;;4.03;1.42;;;;;;;23.91;47.83;98761.13;5093751;28;20040;-83
2022/05/24 11:42:28;;;;;;;3.85;1.75;;;;;;;23.86;45.92;98768.97;5093884;28;20483;-84
2022/05/24 11:45:00;;;;;;;4.60;1.83;;;;;;;23.70;45.80;98762.06;5093814;28;20109;-84
2022/05/24 11:47:37;;;;;;;2.75;1.92;;;;;;;23.41;45.25;98770.13;5091883;28;20528;-85
2022/05/24 11:50:39;;;;;;;5.63;2.85;;;;;;;23.07;45.54;98782.47;5093276;28;20050;-85
2022/05/24 11:53:11;;;;;;;5.40;2.28;;;;;;;22.80;45.93;98776.81;5092573;28;20455;-85
2022/05/24 11:55:55;;;;;;;3.05;2.33;;;;;;;22.44;46.74;98777.66;5091334;28;20052;-84
2022/05/24 11:58:22;;;;;;;3.97;2.55;;;;;;;22.25;46.75;98786.13;5090672;28;20443;-86
2022/05/24 12:01:09;;;;;;;6.32;2.88;;;;;;;21.98;46.15;98796.50;5089878;28;20083;-86
2022/05/24 12:10:22;;;;;;;3.60;2.60;;;;;;;21.30;47.90;98832.16;5048027;28;20049;-86
2022/05/24 12:12:50;;;;;;;8.95;3.25;;;;;;;21.02;48.56;98837.22;5031793;28;20060;-86
2022/05/24 12:15:19;;;;;;;6.22;3.90;;;;;;;20.68;49.29;98828.56;5069114;28;20493;-85
2022/05/24 12:17:58;;;;;;;6.13;3.83;;;;;;;20.29;51.36;98839.09;5092706;28;20106;-85
2022/05/24 12:20:29;;;;;;;7.68;4.25;;;;;;;20.01;56.04;98842.22;5090634;28;20066;-86
2022/05/24 12:23:18;;;;;;;5.53;3.75;;;;;;;19.89;56.69;98832.88;5090276;28;20493;-85
2022/05/24 12:26:04;;;;;;;;;;;;;;;19.96;56.28;98827.69;5091531;28;20052;-85
2022/05/24 12:28:36;;;;;;;6.10;4.40;;;;;;;20.08;56.04;98828.16;5090847;28;20324;-86
2022/05/24 12:31:18;;;;;;;6.40;5.03;;;;;;;20.10;56.99;98824.31;5090752;28;20420;-86
2022/05/24 12:34:03;;;;;;;6.03;5.47;;;;;;;20.14;56.05;98840.81;5090944;28;20054;-85
2022/05/24 12:36:43;;;;;;;7.82;5.55;;;;;;;20.15;55.23;98840.66;5090773;28;20101;-85
2022/05/24 12:39:33;;;;;;;8.93;5.82;;;;;;;20.22;55.48;98839.97;5089691;28;20569;-85
2022/05/24 12:42:05;;;;;;;8.70;6.03;;;;;;;20.25;55.65;98852.97;5089253;28;20052;-85
2022/05/24 12:44:39;;;;;;;7.67;6.57;;;;;;;20.24;53.64;98848.66;5089209;28;20459;-85
2022/05/24 12:47:06;;;;;;;8.82;6.25;;;;;;;20.28;55.09;98855.31;5089288;28;20405;-86
2022/05/24 12:49:51;;;;;;;7.45;6.75;;;;;;;20.23;53.42;98847.81;5088883;28;20051;-86
2022/05/24 12:52:24;;;;;;;7.00;6.40;;;;;;;20.23;54.18;98857.69;5089088;28;20067;-86
2022/05/24 12:55:54;;;;;;;8.57;7.40;;;;;;;20.25;55.29;98863.66;5090744;28;20055;-86
2022/05/24 12:58:30;;;;;;;7.78;7.07;;;;;;;20.39;55.28;98862.97;5090364;28;20230;-86
2022/05/24 13:01:21;;;;;;;9.10;7.40;;;;;;;20.66;58.30;98858.16;5089025;28;20048;-85
2022/05/24 13:03:57;;;;;;;7.70;6.90;;;;;;;21.08;57.43;98864.09;5090569;28;20044;-86
2022/05/24 13:06:30;;;;;;;7.70;7.05;;;;;;;21.54;56.03;98872.28;5090598;28;20439;-86
2022/05/24 13:09:17;;;;;;;;;;;;;;;21.86;55.08;98887.22;5089600;28;20052;-86
2022/05/24 13:11:49;;;;;;;7.78;7.03;;;;;;;22.21;54.33;98880.50;5081404;28;19920;-86
2022/05/24 13:14:40;;;;;;;7.63;6.65;;;;;;;22.31;52.24;98885.59;5088991;28;20058;-87
2022/05/24 13:17:09;;;;;;;6.22;5.72;;;;;;;22.44;52.75;98891.13;5089116;28;20594;-86
2022/05/24 13:19:45;;;;;;;5.68;5.28;;;;;;;22.46;50.68;98894.44;5090290;28;20043;-86
2022/05/24 13:22:13;;;;;;;5.95;5.50;;;;;;;22.47;50.76;98901.47;5088887;28;20056;-86
2022/05/24 13:24:55;;;;;;;5.50;5.10;;;;;;;22.45;48.98;98905.34;5090094;28;20103;-86
2022/05/24 13:27:22;;;;;;;5.67;5.27;;;;;;;22.56;52.32;98904.06;5089087;28;20052;-86
2022/05/24 13:35:32;;;;;;;3.70;3.40;;;;;;;22.76;49.19;98894.44;5090491;28;20055;-87
2022/05/24 13:37:59;;;;;;;4.90;4.00;;;;;;;22.70;47.92;98908.59;5089809;28;20496;-86
2022/05/24 13:40:57;;;;;;;6.22;3.65;;;;;;;22.57;47.54;98905.75;5089922;28;20105;-86
2022/05/24 13:43:42;;;;;;;3.38;3.08;;;;;;;22.51;47.13;98924.22;5085291;28;20073;-85
2022/05/24 13:46:12;;;;;;;3.80;2.88;;;;;;;22.54;49.00;98911.47;5088393;28;20515;-86
2022/05/24 13:48:55;;;;;;;3.45;3.10;;;;;;;22.55;47.45;98927.41;5088730;28;20052;-86
2022/05/24 13:51:30;;;;;;;;;;;;;;;22.61;50.01;98920.47;5090240;28;20527;-87
2022/05/24 13:53:57;;;;;;;1.85;1.75;;;;;;;22.87;51.54;98914.56;5089665;28;20173;-86
2022/05/24 13:56:50;;;;;;;1.95;1.77;;;;;;;23.19;51.43;98919.66;5091184;28;20067;-87
2022/05/24 13:59:23;;;;;;;1.77;1.58;;;;;;;23.69;51.40;98918.91;5092583;28;20052;-86
2022/05/24 14:01:57;;;;;;;;;;;;;;;24.18;53.21;98927.16;5093850;28;20455;-87
2022/05/24 14:04:26;;;;;;;3.08;1.65;;;;;;;24.85;51.78;98926.66;5092117;28;19924;-87
2022/05/24 14:07:00;;;;;;;1.98;1.35;;;;;;;25.37;48.65;98920.75;5092276;28;20055;-87
2022/05/24 14:09:29;;;;;;;1.50;1.17;;;;;;;25.91;48.54;98934.31;5092055;28;20125;-87
2022/05/24 14:11:58;;;;;;;1.52;1.20;;;;;;;26.43;46.53;98920.13;5093326;28;20101;-87
2022/05/24 14:14:30;;;;;;;;;;;;;;;26.84;46.87;98937.00;5093749;28;20076;-87
2022/05/24 14:16:57;;;;;;;1.52;0.90;;;;;;;27.24;44.22;98930.56;5093084;28;19919;-88
2022/05/24 14:19:24;;;;;;;0.77;0.77;;;;;;;27.24;41.85;98940.56;5092781;28;20047;-87
2022/05/24 14:21:54;;;;;;;2.03;0.80;;;;;;;27.02;40.51;98940.88;5092721;28;20412;-87
2022/05/24 14:24:24;;;;;;;0.60;0.60;;;;;;;26.75;41.10;98941.78;5094490;28;20531;-86
2022/05/24 14:26:54;;;;;;;3.42;1.10;;;;;;;26.59;42.03;98942.25;5093007;28;20070;-87
2022/05/24 14:29:22;;;;;;;0.90;0.65;;;;;;;26.56;43.13;98946.22;5093034;28;20056;-88
2022/05/24 14:31:50;;;;;;;0.80;0.70;;;;;;;26.69;43.74;98944.53;5092554;28;20048;-88
2022/05/24 14:34:18;;;;;;;1.00;0.68;;;;;;;26.89;42.95;98941.72;5092814;28;20428;-88
2022/05/24 14:36:45;;;;;;;1.25;0.73;;;;;;;27.13;42.11;98944.78;5092912;28;20527;-87
2022/05/24 14:39:13;;;;;;;1.60;1.00;;;;;;;27.33;41.03;98939.25;5093107;28;20113;-88
2022/05/24 14:41:42;;;;;;;0.80;0.73;;;;;;;27.55;41.26;98946.97;5091343;28;20052;-88
2022/05/24 14:44:15;;;;;;;1.45;0.68;;;;;;;27.79;39.66;98958.03;5091559;28;20394;-87
2022/05/24 14:46:42;;;;;;;1.50;0.80;;;;;;;28.05;40.14;98966.97;5091505;28;20603;-88
2022/05/24 14:49:09;;;;;;;1.58;0.90;;;;;;;28.31;39.71;98963.22;5093010;28;20052;-88
2022/05/24 14:51:46;;;;;;;1.48;0.60;;;;;;;28.54;38.49;98979.84;5092223;28;20052;-89
2022/05/24 14:54:13;;;;;;;1.23;0.60;;;;;;;28.70;38.14;98981.13;5091192;28;20055;-88
2022/05/24 14:56:39;;;;;;;1.17;0.90;;;;;;;28.67;36.58;98970.75;5091097;28;20052;-87
2022/05/24 14:59:09;;;;;;;2.15;0.63;;;;;;;28.43;35.42;98976.84;5092240;28;20276;-88
2022/05/24 15:01:36;;;;;;;0.85;0.60;;;;;;;28.11;36.04;98966.09;5091142;28;20044;-88
2022/05/24 15:04:03;;;;;;;0.65;0.60;;;;;;;27.81;36.50;98966.78;5090845;28;20143;-88
2022/05/24 15:06:30;;;;;;;1.45;0.60;;;;;;;27.53;37.00;98973.38;5090841;28;20060;-86
2022/05/24 15:17:33;;;;;;;0.63;0.50;;;;;;;26.90;37.53;98992.81;5092342;28;20059;-86
2022/05/24 15:20:08;;;;;;;0.95;0.60;;;;;;;26.81;35.50;99004.91;5092277;28;20048;-88
2022/05/24 15:22:39;;;;;;;0.75;0.38;;;;;;;26.64;35.16;99005.38;5091032;28;20056;-87
2022/05/24 15:25:10;;;;;;;0.95;0.50;;;;;;;26.35;34.54;99004.78;5092217;28;20101;-88
2022/05/24 15:27:37;;;;;;;2.45;0.55;;;;;;;26.08;36.24;99007.50;5090615;28;20052;-88
2022/05/24 15:30:06;;;;;;;0.95;0.60;;;;;;;25.86;36.26;99009.56;5091963;28;20485;-88
2022/05/24 15:32:33;;;;;;;0.68;0.50;;;;;;;25.72;37.06;99011.44;5091875;28;20283;-87
2022/05/24 15:35:00;;;;;;;0.90;0.40;;;;;;;25.63;36.64;99006.22;5091457;28;20055;-87
2022/05/24 15:37:26;;;;;;;0.52;0.50;;;;;;;25.59;36.68;99007.69;5093318;22;20048;-60
2022/05/24 15:39:53;;;;;;;0.82;0.40;;;;;;;25.54;36.51;99010.13;5050013;28;20099;-62
2022/05/24 15:42:21;;;;;;;1.70;0.63;;;;;;;25.44;36.30;99013.22;5049419;28;20044;-64
2022/05/24 15:44:47;;;;;;;2.60;0.80;;;;;;;25.26;36.52;99021.84;5051721;28;20103;-64
2022/05/24 15:47:14;;;;;;;0.60;0.57;;;;;;;25.05;36.41;99014.75;5051915;28;20045;-70
2022/05/24 15:49:40;;;;;;;0.95;0.40;;;;;;;24.82;37.28;99015.88;5051756;28;20053;-71
2022/05/24 15:52:07;;;;;;;0.60;0.50;;;;;;;24.60;36.93;99021.34;5051172;28;20132;-64
2022/05/24 15:54:35;;;;;;;1.95;0.60;;;;;;;24.40;37.70;99024.72;5051555;28;20045;-63
2022/05/24 15:57:02;;;;;;;0.93;0.70;;;;;;;24.22;37.40;99025.19;5049713;28;20636;-63
2022/05/24 15:59:30;;;;;;;0.90;0.60;;;;;;;24.03;38.03;99024.00;5051394;28;20049;-62
2022/05/24 16:01:56;;;;;;;3.17;2.20;;;;;;;23.84;38.40;99036.25;5051036;28;20075;-63
2022/05/24 16:10:06;;;;;;;3.50;3.00;;;;;;;22.86;39.64;99060.50;5050997;28;20068;-61
2022/05/24 16:12:37;;;;;;;2.70;2.50;;;;;;;22.44;39.87;99069.94;5050095;28;20064;-62
2022/05/24 16:15:13;;;;;;;4.78;2.38;;;;;;;22.07;40.14;99067.06;5049722;28;20049;-63
2022/05/24 16:17:40;;;;;;;2.10;2.00;;;;;;;21.70;40.65;99064.97;5049374;28;20497;-62
2022/05/24 16:20:07;;;;;;;2.17;1.98;;;;;;;21.35;41.25;99070.66;5050734;28;20075;-67
2022/05/24 16:22:37;;;;;;;1.92;1.70;;;;;;;21.03;41.73;99087.69;5050723;28;20373;-61
2022/05/24 16:25:04;;;;;;;5.10;1.63;;;;;;;20.73;42.02;99087.41;5050515;28;20048;-63
2022/05/24 16:27:31;;;;;;;2.65;1.20;;;;;;;20.43;43.10;99094.16;5050451;28;20061;-64
2022/05/24 16:30:18;;;;;;;1.25;1.10;;;;;;;20.09;43.55;99089.81;5050175;28;20126;-63
2022/05/24 16:32:44;;;;;;;0.90;0.80;;;;;;;19.82;43.66;99107.78;5050610;28;20369;-61
2022/05/24 16:35:11;;;;;;;0.95;0.80;;;;;;;19.56;44.35;99097.19;5050320;28;20045;-62
2022/05/24 16:37:37;;;;;;;0.98;0.70;;;;;;;19.31;44.77;99089.94;5050707;28;20451;-61
2022/05/24 16:40:05;;;;;;;1.08;0.90;;;;;;;19.10;45.86;99106.38;5050347;28;20078;-63
2022/05/24 16:42:32;;;;;;;2.63;0.90;;;;;;;18.91;46.12;99104.72;5049011;28;20451;-61
2022/05/24 16:44:59;;;;;;;1.30;1.17;;;;;;;18.74;46.57;99107.28;5061211;28;20045;-64
2022/05/24 16:47:26;;;;;;;3.17;0.95;;;;;;;18.60;47.07;99108.69;5070587;28;20117;-61
2022/05/24 16:49:52;;;;;;;1.27;1.17;;;;;;;18.47;47.33;99111.78;5051579;28;20049;-61
2022/05/24 16:52:19;;;;;;;1.35;1.15;;;;;;;18.34;47.74;99102.34;5050233;28;20114;-62
2022/05/24 17:00:20;;;;;;;3.17;1.63;;;;;;;18.19;49.48;99091.41;5050262;28;20044;-62
2022/05/24 17:02:51;;;;;;;2.55;1.40;;;;;;;18.21;49.85;99099.25;5048924;28;20468;-62
2022/05/24 17:05:19;;;;;;;1.20;1.20;;;;;;;18.26;50.03;99109.44;5050029;28;20162;-64
2022/05/24 17:07:46;;;;;;;1.50;1.15;;;;;;;18.32;49.82;99104.31;5050465;28;20554;-62
2022/05/24 17:10:15;;;;;;;1.83;1.42;;;;;;;18.40;49.85;99102.72;5049775;28;20440;-61
2022/05/24 17:12:43;;;;;;;1.52;1.33;;;;;;;18.48;50.28;99100.97;5048975;28;20111;-64
2022/05/24 17:15:13;;;;;;;1.70;1.60;;;;;;;18.57;49.76;99112.50;5050055;28;20045;-63
2022/05/24 17:17:41;;;;;;;1.70;1.58;;;;;;;18.66;50.35;99113.41;5050107;28;20102;-63
2022/05/24 17:20:11;;;;;;;1.65;1.55;;;;;;;18.74;50.43;99113.47;5049285;28;20502;-61
2022/05/24 17:22:38;;;;;;;2.20;1.98;;;;;;;18.83;50.05;99119.69;5049740;28;20057;-61
2022/05/24 17:25:05;;;;;;;4.72;1.77;;;;;;;18.89;49.65;99119.03;5049516;28;20493;-62